Time;durP1;ratioP1;P1;durP2;ratioP2;P2;SDS_P1;SDS_P2;PMS_P1;PMS_P2;Temp;Humidity;BMP_temperature;BMP_pressure;BME280_temperature;BME280_humidity;BME280_pressure;Samples;Min_cycle;Max_cycle;Signal;HPM_P1;HPM_P2
2023/09/02 00:00:08;;;;;;;8.95;4.80;;;13.90;99.90;;;;;;5034670;28;20047;-62
2023/09/02 00:02:34;;;;;;;9.82;6.38;;;13.80;99.90;;;;;;5033987;28;20045;-61
2023/09/02 00:05:00;;;;;;;8.43;5.78;;;14.00;99.90;;;;;;5035345;28;20505;-62
2023/09/02 00:07:26;;;;;;;9.25;5.32;;;13.90;99.90;;;;;;5052240;28;20048;-61
2023/09/02 00:09:51;;;;;;;7.53;5.32;;;13.80;99.90;;;;;;5033905;28;20037;-61
2023/09/02 00:12:17;;;;;;;7.80;5.38;;;13.90;99.90;;;;;;5034625;28;20445;-61
2023/09/02 00:14:42;;;;;;;9.60;6.47;;;13.80;99.90;;;;;;5034846;28;20032;-61
2023/09/02 00:17:08;;;;;;;7.82;5.65;;;14.10;99.90;;;;;;5051413;28;20045;-62
2023/09/02 00:19:34;;;;;;;8.27;5.18;;;13.80;99.90;;;;;;5035237;28;20077;-62
2023/09/02 00:22:00;;;;;;;9.50;6.15;;;13.90;99.90;;;;;;5018184;28;20049;-62
2023/09/02 00:24:25;;;;;;;9.55;6.00;;;13.90;99.90;;;;;;5051646;28;20106;-62
2023/09/02 00:26:51;;;;;;;8.82;6.20;;;14.00;99.90;;;;;;5034106;28;20120;-61
2023/09/02 00:29:17;;;;;;;8.20;5.72;;;14.00;99.90;;;;;;5034287;28;20084;-61
2023/09/02 00:31:42;;;;;;;8.30;6.43;;;13.90;99.90;;;;;;5033635;28;20037;-62
2023/09/02 00:34:08;;;;;;;8.40;6.88;;;14.00;99.90;;;;;;5017951;28;20036;-62
2023/09/02 00:36:34;;;;;;;7.68;6.00;;;14.00;99.90;;;;;;5052376;28;20116;-62
2023/09/02 00:39:00;;;;;;;9.15;5.70;;;14.10;99.90;;;;;;5051753;28;20394;-62
2023/09/02 00:41:48;;;;;;;8.73;4.75;;;13.80;99.90;;;;;;5052026;28;20511;-62
2023/09/02 00:44:15;;;;;;;9.57;5.68;;;13.80;99.90;;;;;;5033967;28;20102;-67
2023/09/02 00:46:41;;;;;;;8.05;4.80;;;13.80;99.90;;;;;;5013299;28;20064;-67
2023/09/02 00:49:06;;;;;;;7.32;5.18;;;14.00;99.90;;;;;;5030565;28;20129;-67
2023/09/02 00:51:32;;;;;;;7.78;4.72;;;13.80;99.90;;;;;;5030858;28;20159;-67
2023/09/02 00:53:58;;;;;;;8.45;5.55;;;13.70;99.90;;;;;;5030393;28;20038;-67
2023/09/02 00:56:24;;;;;;;7.88;4.97;;;13.80;99.90;;;;;;5030640;28;20121;-67
2023/09/02 00:58:52;;;;;;;9.88;5.60;;;14.00;99.90;;;;;;5029528;28;20051;-67
2023/09/02 01:01:19;;;;;;;8.52;6.13;;;13.60;99.90;;;;;;5030704;28;20103;-67
2023/09/02 01:03:45;;;;;;;8.55;6.47;;;13.60;99.90;;;;;;5032044;28;20053;-67
2023/09/02 01:06:10;;;;;;;9.18;6.55;;;13.70;99.90;;;;;;5030701;28;20045;-67
2023/09/02 01:08:37;;;;;;;7.10;5.65;;;13.60;99.90;;;;;;5030382;28;20394;-67
2023/09/02 01:11:03;;;;;;;11.82;6.00;;;13.50;99.90;;;;;;5030749;28;20487;-67
2023/09/02 01:13:29;;;;;;;10.48;7.03;;;13.60;99.90;;;;;;5029377;28;20047;-67
2023/09/02 01:15:56;;;;;;;12.65;9.77;;;13.50;99.90;;;;;;5030794;28;20499;-67
2023/09/02 01:18:23;;;;;;;9.43;6.63;;;13.40;99.90;;;;;;5032055;28;20091;-67
2023/09/02 01:21:16;;;;;;;10.70;7.47;;;13.70;99.90;;;;;;5013465;28;20053;-67
2023/09/02 01:24:00;;;;;;;7.65;6.40;;;13.40;99.90;;;;;;5030221;28;20041;-67
2023/09/02 01:27:03;;;;;;;9.70;6.63;;;13.40;99.90;;;;;;5030442;28;20049;-67
2023/09/02 01:29:33;;;;;;;8.70;6.15;;;13.20;99.90;;;;;;5030705;28;20502;-67
2023/09/02 01:32:01;;;;;;;9.23;6.78;;;13.30;99.90;;;;;;5031601;28;20052;-67
2023/09/02 01:34:30;;;;;;;9.82;6.93;;;13.20;99.90;;;;;;5031162;28;20117;-67
2023/09/02 01:37:04;;;;;;;10.70;9.60;;;13.30;99.90;;;;;;5030832;28;20073;-67
2023/09/02 01:39:30;;;;;;;9.82;8.13;;;13.10;99.90;;;;;;5030062;28;20548;-67
2023/09/02 01:41:56;;;;;;;9.27;5.40;;;13.20;99.90;;;;;;5029752;28;20486;-67
2023/09/02 01:44:24;;;;;;;8.48;5.30;;;13.10;99.90;;;;;;5030682;28;20072;-67
2023/09/02 01:46:51;;;;;;;9.88;5.55;;;13.10;99.90;;;;;;5040461;28;20052;-67
2023/09/02 01:49:16;;;;;;;7.30;5.47;;;13.20;99.90;;;;;;5050884;28;20056;-67
2023/09/02 01:51:43;;;;;;;7.82;4.90;;;13.20;99.90;;;;;;5051565;28;20482;-67
2023/09/02 01:54:09;;;;;;;8.13;5.38;;;13.00;99.90;;;;;;5033310;28;20501;-67
2023/09/02 01:56:36;;;;;;;8.95;6.25;;;12.80;99.90;;;;;;5032129;28;20124;-67
2023/09/02 01:59:01;;;;;;;9.27;7.20;;;12.80;99.90;;;;;;5017250;28;20033;-67
2023/09/02 02:01:27;;;;;;;7.80;6.93;;;12.90;99.90;;;;;;5033219;28;20055;-67
2023/09/02 02:04:06;;;;;;;9.50;8.10;;;13.00;99.90;;;;;;5033315;28;20489;-67
2023/09/02 02:06:34;;;;;;;11.70;10.70;;;12.80;99.90;;;;;;5016804;28;20037;-67
2023/09/02 02:09:05;;;;;;;11.77;10.70;;;12.80;99.90;;;;;;5016477;28;20410;-67
2023/09/02 02:11:36;;;;;;;12.68;9.23;;;12.90;99.90;;;;;;5035432;28;20040;-67
2023/09/02 02:14:03;;;;;;;9.35;7.18;;;12.80;99.90;;;;;;5037162;28;20056;-67
2023/09/02 02:16:29;;;;;;;9.10;7.53;;;13.00;99.90;;;;;;5035728;28;20041;-67
2023/09/02 02:19:00;;;;;;;8.25;6.25;;;12.60;99.90;;;;;;5037375;28;20130;-67
2023/09/02 02:21:30;;;;;;;9.02;6.60;;;12.70;99.90;;;;;;5054472;28;20506;-67
2023/09/02 02:23:56;;;;;;;11.15;8.07;;;12.70;99.90;;;;;;5053851;28;20037;-67
2023/09/02 02:26:22;;;;;;;8.90;7.93;;;12.90;99.90;;;;;;5054474;28;20122;-67
2023/09/02 02:28:48;;;;;;;9.82;8.20;;;12.60;99.90;;;;;;5036017;28;20524;-67
2023/09/02 02:31:14;;;;;;;8.38;5.18;;;12.80;99.90;;;;;;5053480;28;20033;-67
2023/09/02 02:33:39;;;;;;;8.50;5.80;;;12.70;99.90;;;;;;5036730;28;20044;-67
2023/09/02 02:36:05;;;;;;;7.55;4.95;;;12.60;99.90;;;;;;5036793;28;20474;-67
2023/09/02 02:38:31;;;;;;;8.38;5.65;;;12.50;99.90;;;;;;5035834;28;20084;-67
2023/09/02 02:40:57;;;;;;;12.95;5.38;;;12.60;99.90;;;;;;5054516;28;20513;-67
2023/09/02 02:43:26;;;;;;;8.38;5.18;;;12.70;99.90;;;;;;5036212;28;20548;-67
2023/09/02 02:45:53;;;;;;;9.38;6.13;;;12.40;99.90;;;;;;5053087;28;20627;-66
2023/09/02 02:48:21;;;;;;;10.40;6.30;;;12.50;99.90;;;;;;5054133;28;20387;-66
2023/09/02 02:50:47;;;;;;;9.85;6.43;;;12.50;99.90;;;;;;5036249;28;20044;-66
2023/09/02 02:53:13;;;;;;;9.68;6.45;;;12.40;99.90;;;;;;5018741;28;20037;-67
2023/09/02 02:55:38;;;;;;;9.85;6.07;;;12.30;99.90;;;;;;5053629;28;20045;-66
2023/09/02 02:58:04;;;;;;;10.35;5.97;;;12.40;99.90;;;;;;5036340;28;20041;-66
2023/09/02 03:00:30;;;;;;;8.68;5.60;;;12.30;99.90;;;;;;5035316;28;20037;-67
2023/09/02 03:02:56;;;;;;;8.40;6.20;;;12.50;99.90;;;;;;5036513;28;20527;-66
2023/09/02 03:05:21;;;;;;;9.43;7.07;;;12.30;99.90;;;;;;5035301;28;20510;-67
2023/09/02 03:07:48;;;;;;;7.80;5.35;;;12.20;99.90;;;;;;5053375;28;20049;-66
2023/09/02 03:10:13;;;;;;;13.05;6.88;;;12.20;99.90;;;;;;5019322;28;20482;-67
2023/09/02 03:12:39;;;;;;;8.68;5.63;;;12.50;99.90;;;;;;5035044;28;20048;-67
2023/09/02 03:15:05;;;;;;;8.82;5.82;;;12.30;99.90;;;;;;5036061;28;20546;-67
2023/09/02 03:17:31;;;;;;;9.23;6.88;;;12.20;99.90;;;;;;5035741;28;20075;-67
2023/09/02 03:19:57;;;;;;;8.48;5.97;;;12.30;99.90;;;;;;5035258;28;20088;-66
2023/09/02 03:22:22;;;;;;;8.88;7.10;;;12.30;99.90;;;;;;5034759;28;20405;-67
2023/09/02 03:24:54;;;;;;;9.73;6.60;;;12.30;99.90;;;;;;5018526;28;20052;-66
2023/09/02 03:27:21;;;;;;;8.05;6.75;;;12.20;99.90;;;;;;5034674;28;20077;-67
2023/09/02 03:29:50;;;;;;;11.18;8.80;;;12.20;99.90;;;;;;5035468;28;20079;-67
2023/09/02 03:32:16;;;;;;;9.77;8.48;;;12.20;99.90;;;;;;5053124;28;20040;-67
2023/09/02 03:34:42;;;;;;;9.77;8.77;;;12.10;99.90;;;;;;5052323;28;20135;-67
2023/09/02 03:37:08;;;;;;;11.43;10.05;;;12.10;99.90;;;;;;5035206;28;20044;-66
2023/09/02 03:39:34;;;;;;;9.95;8.88;;;12.10;99.90;;;;;;5035260;28;20079;-67
2023/09/02 03:42:00;;;;;;;8.48;7.55;;;12.10;99.90;;;;;;5052848;28;20044;-67
2023/09/02 03:44:26;;;;;;;8.73;7.07;;;12.10;99.90;;;;;;5052985;28;20051;-67
2023/09/02 03:46:52;;;;;;;8.60;7.22;;;12.00;99.90;;;;;;5041106;28;20049;-67
2023/09/02 03:49:18;;;;;;;11.80;7.32;;;11.90;99.90;;;;;;5050694;28;20088;-67
2023/09/02 03:51:43;;;;;;;8.85;6.00;;;12.10;99.90;;;;;;5052720;28;20037;-67
2023/09/02 03:54:10;;;;;;;7.95;5.97;;;12.00;99.90;;;;;;5052794;28;20363;-67
2023/09/02 03:56:39;;;;;;;8.80;5.78;;;11.90;99.90;;;;;;5041835;28;20051;-67
2023/09/02 03:59:08;;;;;;;8.60;6.07;;;11.90;99.90;;;;;;5051769;28;20041;-66
2023/09/02 04:01:34;;;;;;;8.35;5.78;;;12.00;99.90;;;;;;5050865;28;20045;-67
2023/09/02 04:03:59;;;;;;;8.05;5.80;;;11.80;99.90;;;;;;5051669;28;20481;-67
2023/09/02 04:06:25;;;;;;;8.95;6.93;;;11.90;99.90;;;;;;5052538;28;20098;-67
2023/09/02 04:08:51;;;;;;;7.95;6.28;;;11.80;99.90;;;;;;5050565;28;20359;-67
2023/09/02 04:11:17;;;;;;;8.38;6.15;;;11.90;99.90;;;;;;5052744;28;20052;-67
2023/09/02 04:13:43;;;;;;;9.38;6.90;;;11.90;99.90;;;;;;5050991;28;20036;-67
2023/09/02 04:16:10;;;;;;;9.63;7.38;;;11.90;99.90;;;;;;5050227;28;20394;-66
2023/09/02 04:18:36;;;;;;;10.43;7.93;;;11.90;99.90;;;;;;5052363;28;20051;-67
2023/09/02 04:21:03;;;;;;;10.20;7.70;;;11.90;99.90;;;;;;5044570;28;20052;-67
2023/09/02 04:23:30;;;;;;;10.48;7.50;;;11.70;99.90;;;;;;5045441;28;20052;-67
2023/09/02 04:25:57;;;;;;;9.95;8.48;;;11.80;99.90;;;;;;5052835;28;20041;-66
2023/09/02 04:28:23;;;;;;;11.35;10.23;;;11.80;99.90;;;;;;5050988;28;20045;-67
2023/09/02 04:30:49;;;;;;;13.30;9.85;;;11.80;99.90;;;;;;5051540;28;20072;-66
2023/09/02 04:33:16;;;;;;;12.32;10.93;;;11.70;99.90;;;;;;5033220;28;20040;-66
2023/09/02 04:35:44;;;;;;;11.63;7.95;;;11.80;99.90;;;;;;5052057;28;20040;-66
2023/09/02 04:38:10;;;;;;;9.90;8.52;;;11.70;99.90;;;;;;5033730;28;20048;-67
2023/09/02 04:40:39;;;;;;;11.68;9.80;;;11.60;99.90;;;;;;5052290;28;20124;-66
2023/09/02 04:43:06;;;;;;;7.38;6.50;;;11.80;99.90;;;;;;5034234;28;20124;-66
2023/09/02 04:45:36;;;;;;;11.07;9.25;;;11.70;99.90;;;;;;5038927;28;20048;-67
2023/09/02 04:48:03;;;;;;;14.30;13.05;;;11.70;99.90;;;;;;5030873;28;20068;-66
2023/09/02 04:50:29;;;;;;;36.20;34.25;;;11.70;99.90;;;;;;5013218;28;20037;-66
2023/09/02 04:52:58;;;;;;;27.42;25.73;;;11.70;99.90;;;;;;5031454;28;20042;-67
2023/09/02 04:55:27;;;;;;;31.85;30.15;;;11.70;99.90;;;;;;5032000;28;20087;-67
2023/09/02 04:57:54;;;;;;;20.98;19.55;;;11.70;99.90;;;;;;5013290;28;20107;-67
2023/09/02 05:00:20;;;;;;;16.38;15.07;;;11.70;99.90;;;;;;5030689;28;20045;-66
2023/09/02 05:02:46;;;;;;;10.90;9.80;;;11.70;99.90;;;;;;5031867;28;20048;-66
2023/09/02 05:05:19;;;;;;;9.73;8.75;;;11.80;99.90;;;;;;5029878;28;20256;-67
2023/09/02 05:07:45;;;;;;;10.10;8.48;;;11.80;99.90;;;;;;5031689;28;20042;-66
2023/09/02 05:10:12;;;;;;;11.18;7.95;;;11.80;99.90;;;;;;5030624;28;20094;-66
2023/09/02 05:12:38;;;;;;;16.45;15.00;;;11.70;99.90;;;;;;5031116;28;20362;-66
2023/09/02 05:15:04;;;;;;;12.48;11.27;;;11.70;99.90;;;;;;5032064;28;20094;-66
2023/09/02 05:17:32;;;;;;;13.63;12.40;;;11.60;99.90;;;;;;5031757;28;20106;-67
2023/09/02 05:20:01;;;;;;;16.92;15.52;;;11.70;99.90;;;;;;5030189;28;20042;-66
2023/09/02 05:22:27;;;;;;;25.20;23.60;;;11.80;99.90;;;;;;5030610;28;20052;-66
2023/09/02 05:24:53;;;;;;;24.55;22.85;;;11.70;99.90;;;;;;5031305;28;20045;-66
2023/09/02 05:27:22;;;;;;;9.95;8.32;;;12.00;99.90;;;;;;5029327;28;20457;-67
2023/09/02 05:29:48;;;;;;;9.40;6.80;;;11.80;99.90;;;;;;5030249;28;20048;-66
2023/09/02 05:32:17;;;;;;;12.00;6.70;;;11.80;99.90;;;;;;5030318;28;20049;-66
2023/09/02 05:34:43;;;;;;;11.20;7.93;;;11.90;99.90;;;;;;5030806;28;20042;-66
2023/09/02 05:37:09;;;;;;;10.30;8.25;;;11.90;99.90;;;;;;5014015;28;20049;-66
2023/09/02 05:39:34;;;;;;;21.17;19.42;;;11.90;99.90;;;;;;5030701;28;20363;-66
2023/09/02 05:42:00;;;;;;;30.00;28.20;;;12.00;99.90;;;;;;5030956;28;20033;-67
2023/09/02 05:44:26;;;;;;;35.60;33.60;;;12.00;99.90;;;;;;5030954;28;20486;-62
2023/09/02 05:46:52;;;;;;;28.48;26.58;;;12.00;99.90;;;;;;5042165;28;20200;-61
2023/09/02 05:49:17;;;;;;;34.28;32.30;;;12.20;99.90;;;;;;5053322;28;20391;-61
2023/09/02 05:51:43;;;;;;;33.60;31.52;;;12.00;99.90;;;;;;5051497;28;20037;-61
2023/09/02 05:54:09;;;;;;;14.30;13.02;;;12.10;99.90;;;;;;5034165;28;20038;-62
2023/09/02 05:56:38;;;;;;;21.85;20.30;;;12.00;99.90;;;;;;5034091;28;20394;-61
2023/09/02 05:59:05;;;;;;;47.33;44.83;;;12.20;99.90;;;;;;5035239;28;20048;-61
2023/09/02 06:01:31;;;;;;;42.60;40.45;;;12.10;99.90;;;;;;5034417;28;20112;-61
2023/09/02 06:03:57;;;;;;;47.30;44.72;;;12.30;99.90;;;;;;5017570;28;20084;-61
2023/09/02 06:06:23;;;;;;;55.50;52.75;;;12.20;99.90;;;;;;5035188;28;20077;-61
2023/09/02 06:08:49;;;;;;;42.90;40.70;;;12.40;99.90;;;;;;5016560;28;20044;-61
2023/09/02 06:11:15;;;;;;;21.95;20.35;;;12.30;99.90;;;;;;5033626;28;20037;-61
2023/09/02 06:13:41;;;;;;;39.28;37.00;;;12.40;99.90;;;;;;5033127;28;20509;-61
2023/09/02 06:16:07;;;;;;;13.35;11.95;;;12.40;99.90;;;;;;5031075;28;20041;-66
2023/09/02 06:18:34;;;;;;;19.17;17.70;;;12.60;99.90;;;;;;5018973;28;20064;-66
2023/09/02 06:21:11;;;;;;;24.33;22.65;;;12.70;99.90;;;;;;5030442;28;20033;-67
2023/09/02 06:23:37;;;;;;;14.07;12.77;;;12.80;99.90;;;;;;5033897;28;20041;-66
2023/09/02 06:26:03;;;;;;;13.90;12.80;;;12.70;99.90;;;;;;5017447;28;20505;-67
2023/09/02 06:28:29;;;;;;;112.65;108.05;;;12.90;99.90;;;;;;5029770;28;20049;-67
2023/09/02 06:30:55;;;;;;;135.32;130.15;;;13.20;99.90;;;;;;5025912;28;20034;-67
2023/09/02 06:33:25;;;;;;;19.52;18.13;;;13.10;99.90;;;;;;5028576;28;20446;-67
2023/09/02 06:35:51;;;;;;;16.17;14.77;;;13.40;99.90;;;;;;5030130;28;20117;-67
2023/09/02 06:38:17;;;;;;;19.27;11.98;;;13.40;99.90;;;;;;5018590;28;20073;-67
2023/09/02 06:40:43;;;;;;;16.55;14.85;;;13.60;99.90;;;;;;5030824;28;20045;-67
2023/09/02 06:43:09;;;;;;;19.80;18.10;;;13.70;99.90;;;;;;5030709;28;20399;-67
2023/09/02 06:45:35;;;;;;;116.93;111.38;;;13.60;99.90;;;;;;5029618;28;20099;-65
2023/09/02 06:48:00;;;;;;;34.40;32.35;;;13.80;99.90;;;;;;5034521;28;20053;-73
2023/09/02 06:50:27;;;;;;;15.20;13.90;;;14.00;99.90;;;;;;5033966;28;20080;-68
2023/09/02 06:52:53;;;;;;;29.85;27.98;;;14.00;99.90;;;;;;5034295;28;20037;-69
2023/09/02 06:55:19;;;;;;;20.20;18.42;;;14.00;99.90;;;;;;5033992;28;20437;-69
2023/09/02 06:57:45;;;;;;;12.65;10.93;;;14.30;99.90;;;;;;5050457;28;20094;-71
2023/09/02 07:00:14;;;;;;;54.72;51.85;;;14.20;99.90;;;;;;5034169;28;20049;-70
2023/09/02 07:02:39;;;;;;;50.63;47.97;;;14.20;99.90;;;;;;5016985;28;20045;-70
2023/09/02 07:05:06;;;;;;;16.58;15.10;;;14.70;99.90;;;;;;5050786;28;20044;-69
2023/09/02 07:07:32;;;;;;;22.88;21.33;;;14.80;99.90;;;;;;5015749;28;20053;-69
2023/09/02 07:09:58;;;;;;;30.77;28.67;;;14.80;99.90;;;;;;5033229;28;20066;-69
2023/09/02 07:12:27;;;;;;;23.08;21.45;;;14.70;99.90;;;;;;5032448;28;20045;-69
2023/09/02 07:14:53;;;;;;;14.32;11.32;;;14.80;99.90;;;;;;5016551;28;20044;-69
2023/09/02 07:17:18;;;;;;;13.77;12.50;;;15.10;99.90;;;;;;5044334;28;20041;-69
2023/09/02 07:19:44;;;;;;;56.08;53.08;;;15.30;99.90;;;;;;5028914;28;20052;-68
2023/09/02 07:22:09;;;;;;;30.35;28.63;;;15.30;99.90;;;;;;5049874;28;20212;-69
2023/09/02 07:24:35;;;;;;;12.85;11.63;;;15.30;99.90;;;;;;5032446;28;20745;-70
2023/09/02 07:27:01;;;;;;;11.98;10.77;;;15.50;99.90;;;;;;5049427;28;20044;-69
2023/09/02 07:29:28;;;;;;;12.57;11.50;;;15.50;99.90;;;;;;5032141;28;20087;-70
2023/09/02 07:31:55;;;;;;;14.52;8.38;;;15.80;99.90;;;;;;5032163;28;20041;-69
2023/09/02 07:34:21;;;;;;;23.20;21.65;;;15.60;99.90;;;;;;5031117;28;20071;-69
2023/09/02 07:36:46;;;;;;;11.25;10.15;;;15.90;99.90;;;;;;5031884;28;20477;-69
2023/09/02 07:39:14;;;;;;;12.52;11.40;;;15.80;99.90;;;;;;5043601;28;20037;-69
2023/09/02 07:41:40;;;;;;;12.82;11.73;;;15.80;99.90;;;;;;5043090;28;20116;-69
2023/09/02 07:44:05;;;;;;;29.35;27.75;;;16.30;99.90;;;;;;5031871;28;20149;-69
2023/09/02 07:46:31;;;;;;;24.55;22.92;;;16.10;99.90;;;;;;5049581;28;20115;-69
2023/09/02 07:48:57;;;;;;;108.47;103.88;;;16.30;99.90;;;;;;5031811;28;20080;-69
2023/09/02 07:51:23;;;;;;;41.40;39.35;;;16.20;99.90;;;;;;5015870;28;20486;-68
2023/09/02 07:53:48;;;;;;;103.47;98.75;;;16.60;99.90;;;;;;5031561;28;20051;-70
2023/09/02 07:56:14;;;;;;;49.92;47.38;;;16.60;99.90;;;;;;5050434;28;20124;-70
2023/09/02 07:58:42;;;;;;;23.77;22.00;;;16.50;99.90;;;;;;5031574;28;20052;-69
2023/09/02 08:01:08;;;;;;;219.05;210.10;;;16.60;99.90;;;;;;5030028;28;20091;-69
2023/09/02 08:03:34;;;;;;;58.33;55.67;;;16.90;99.90;;;;;;5031793;28;20081;-69
2023/09/02 08:06:06;;;;;;;43.20;41.05;;;16.90;99.90;;;;;;5031017;28;20095;-69
2023/09/02 08:08:31;;;;;;;25.50;24.02;;;16.90;99.90;;;;;;5018557;28;20371;-69
2023/09/02 08:11:07;;;;;;;23.52;22.13;;;16.90;99.90;;;;;;5031111;28;20037;-69
2023/09/02 08:13:33;;;;;;;30.65;29.10;;;17.00;99.90;;;;;;5037975;28;20036;-70
2023/09/02 08:16:03;;;;;;;57.70;55.08;;;17.10;99.90;;;;;;5031351;28;20070;-70
2023/09/02 08:18:29;;;;;;;28.02;26.58;;;17.10;99.90;;;;;;5029463;28;20041;-70
2023/09/02 08:20:55;;;;;;;14.02;13.13;;;17.30;99.90;;;;;;5031769;28;20048;-70
2023/09/02 08:23:21;;;;;;;33.45;31.83;;;17.40;99.90;;;;;;5048723;28;20155;-70
2023/09/02 08:25:46;;;;;;;21.17;20.02;;;17.40;99.90;;;;;;5009924;28;20140;-70
2023/09/02 08:28:12;;;;;;;11.30;6.85;;;17.50;99.90;;;;;;5016762;28;20049;-71
2023/09/02 08:30:41;;;;;;;6.93;5.82;;;17.60;99.90;;;;;;5029601;28;20124;-68
2023/09/02 08:33:07;;;;;;;8.45;5.45;;;17.50;99.90;;;;;;5030681;28;20037;-67
2023/09/02 08:35:36;;;;;;;5.97;4.53;;;17.60;99.90;;;;;;5029407;28;20087;-71
2023/09/02 08:38:03;;;;;;;32.60;31.08;;;17.50;99.90;;;;;;5028011;28;20042;-70
2023/09/02 08:40:29;;;;;;;13.63;12.68;;;17.60;99.90;;;;;;5016644;28;20041;-70
2023/09/02 08:42:55;;;;;;;49.85;47.83;;;17.90;99.90;;;;;;5048410;28;20037;-70
2023/09/02 08:45:22;;;;;;;29.50;28.02;;;17.80;99.90;;;;;;5030714;28;20045;-69
2023/09/02 08:47:53;;;;;;;18.73;17.60;;;17.90;99.90;;;;;;5027271;28;20521;-69
2023/09/02 08:50:20;;;;;;;12.05;10.98;;;17.90;99.90;;;;;;5031460;28;20041;-70
2023/09/02 08:52:46;;;;;;;23.90;22.70;;;18.00;99.90;;;;;;5030631;28;20038;-71
2023/09/02 08:55:15;;;;;;;12.40;11.23;;;17.90;99.90;;;;;;5030590;28;20108;-70
2023/09/02 08:57:42;;;;;;;22.98;21.40;;;17.80;99.90;;;;;;5029876;28;20053;-71
2023/09/02 09:00:08;;;;;;;9.15;8.32;;;18.10;99.90;;;;;;5032157;28;20045;-69
2023/09/02 09:02:36;;;;;;;7.93;7.13;;;18.00;99.90;;;;;;5031787;28;20037;-76
2023/09/02 09:05:03;;;;;;;6.63;4.50;;;18.30;99.90;;;;;;5030467;28;20491;-69
2023/09/02 09:07:29;;;;;;;7.40;4.38;;;18.20;99.90;;;;;;5030218;28;20053;-70
2023/09/02 09:09:59;;;;;;;7.10;3.90;;;18.30;99.90;;;;;;5030995;28;20479;-64
2023/09/02 09:12:25;;;;;;;7.03;6.32;;;18.10;99.90;;;;;;5029762;28;20048;-63
2023/09/02 09:14:53;;;;;;;8.15;6.15;;;18.30;99.90;;;;;;5029343;28;20037;-63
2023/09/02 09:17:20;;;;;;;7.57;6.80;;;18.30;99.90;;;;;;5029745;28;20038;-62
2023/09/02 09:19:46;;;;;;;8.30;4.97;;;18.30;99.90;;;;;;5030684;28;20042;-64
2023/09/02 09:22:11;;;;;;;7.13;6.35;;;18.40;99.90;;;;;;5035579;28;20116;-63
2023/09/02 09:24:37;;;;;;;12.00;10.07;;;18.50;99.90;;;;;;5017949;28;20152;-63
2023/09/02 09:27:05;;;;;;;6.85;5.97;;;18.50;99.90;;;;;;5034101;28;20046;-63
2023/09/02 09:29:41;;;;;;;8.38;6.32;;;18.80;99.90;;;;;;5035446;28;20126;-63
2023/09/02 09:32:12;;;;;;;10.18;8.82;;;18.60;99.90;;;;;;5033742;28;20069;-63
2023/09/02 09:34:40;;;;;;;7.05;4.53;;;18.80;99.90;;;;;;5018257;28;20435;-63
2023/09/02 09:37:08;;;;;;;6.75;4.40;;;18.90;99.90;;;;;;5034358;28;20042;-63
2023/09/02 09:39:47;;;;;;;8.20;4.40;;;18.70;99.90;;;;;;5034630;28;20048;-62
2023/09/02 09:42:15;;;;;;;8.00;4.68;;;18.90;99.90;;;;;;5035648;28;20049;-63
2023/09/02 09:44:55;;;;;;;6.97;5.25;;;18.80;99.90;;;;;;5034055;28;20041;-63
2023/09/02 09:47:22;;;;;;;7.45;5.90;;;19.00;99.90;;;;;;5024909;28;20052;-66
2023/09/02 09:49:49;;;;;;;8.85;6.03;;;18.80;99.90;;;;;;5033856;28;20037;-65
2023/09/02 09:52:16;;;;;;;12.65;6.28;;;19.00;99.90;;;;;;5051087;28;20041;-64
2023/09/02 09:55:00;;;;;;;8.05;5.60;;;19.00;99.90;;;;;;5036604;28;20045;-64
2023/09/02 09:57:37;;;;;;;8.27;4.90;;;19.10;99.90;;;;;;5037249;28;20044;-64
2023/09/02 10:00:07;;;;;;;7.97;5.03;;;19.00;99.90;;;;;;5037879;28;20397;-65
2023/09/02 10:02:33;;;;;;;7.00;4.68;;;19.10;99.90;;;;;;5036471;28;20044;-64
2023/09/02 10:05:02;;;;;;;7.35;4.80;;;18.90;99.90;;;;;;5037474;28;20055;-64
2023/09/02 10:07:33;;;;;;;10.18;5.45;;;18.90;99.90;;;;;;5035566;28;20045;-64
2023/09/02 10:10:00;;;;;;;10.05;4.53;;;19.20;99.90;;;;;;5037300;28;20037;-64
2023/09/02 10:12:33;;;;;;;7.95;4.88;;;19.20;99.90;;;;;;5020863;28;20102;-64
2023/09/02 10:14:59;;;;;;;7.93;4.78;;;19.40;99.90;;;;;;5036466;28;20043;-64
2023/09/02 10:17:25;;;;;;;9.13;4.65;;;19.40;99.90;;;;;;5036949;28;20051;-64
2023/09/02 10:19:51;;;;;;;8.23;4.30;;;19.50;99.90;;;;;;5054822;28;20063;-64
2023/09/02 10:22:20;;;;;;;6.40;4.18;;;19.50;99.90;;;;;;5053818;28;20490;-64
2023/09/02 10:24:52;;;;;;;6.93;3.90;;;19.50;99.90;;;;;;5020450;28;20094;-64
2023/09/02 10:27:23;;;;;;;10.82;5.53;;;19.30;99.90;;;;;;5036568;28;20398;-64
2023/09/02 10:29:56;;;;;;;7.78;3.85;;;19.30;99.90;;;;;;5036013;28;20129;-64
2023/09/02 10:32:26;;;;;;;6.38;4.22;;;19.30;99.90;;;;;;5053939;28;20048;-64
2023/09/02 10:35:07;;;;;;;8.10;4.43;;;19.70;99.90;;;;;;5036942;28;20102;-64
2023/09/02 10:37:58;;;;;;;10.50;3.53;;;19.40;99.90;;;;;;5053490;28;20575;-64
2023/09/02 10:40:27;;;;;;;10.77;4.22;;;19.60;99.90;;;;;;5035747;28;20052;-64
2023/09/02 10:42:54;;;;;;;7.00;3.80;;;19.70;99.90;;;;;;5053831;28;20111;-64
2023/09/02 10:45:20;;;;;;;6.18;3.40;;;19.40;99.90;;;;;;5020131;28;20052;-64
2023/09/02 10:47:48;;;;;;;6.05;3.85;;;19.80;99.90;;;;;;5054040;28;20048;-64
2023/09/02 10:50:20;;;;;;;6.43;2.83;;;19.70;99.90;;;;;;5053172;28;20068;-64
2023/09/02 10:52:49;;;;;;;7.85;2.30;;;20.00;99.90;;;;;;5036259;28;20036;-64
2023/09/02 10:55:15;;;;;;;6.15;2.70;;;19.90;99.90;;;;;;5053888;28;20120;-64
2023/09/02 10:57:51;;;;;;;5.85;2.35;;;20.20;99.90;;;;;;5053346;28;20052;-64
2023/09/02 11:00:25;;;;;;;5.13;2.08;;;20.20;99.90;;;;;;5054055;28;20116;-64
2023/09/02 11:02:52;;;;;;;4.97;2.20;;;20.20;99.90;;;;;;5053718;28;20048;-63
2023/09/02 11:05:19;;;;;;;6.68;2.47;;;20.00;99.90;;;;;;5018903;28;20072;-64
2023/09/02 11:07:46;;;;;;;7.07;2.33;;;19.90;99.90;;;;;;5035803;28;20040;-64
2023/09/02 11:10:12;;;;;;;7.63;2.22;;;20.20;99.90;;;;;;5035644;28;20037;-64
2023/09/02 11:12:59;;;;;;;4.57;2.00;;;19.90;99.90;;;;;;5053031;28;20040;-64
2023/09/02 11:15:29;;;;;;;5.45;2.20;;;20.20;99.90;;;;;;5019507;28;20395;-64
2023/09/02 11:17:55;;;;;;;4.85;2.08;;;19.90;99.90;;;;;;5052897;28;20049;-64
2023/09/02 11:20:28;;;;;;;5.35;2.35;;;20.00;99.90;;;;;;5019154;28;20040;-64
2023/09/02 11:22:55;;;;;;;4.63;2.17;;;20.10;99.90;;;;;;5035983;28;20033;-64
2023/09/02 11:25:39;;;;;;;5.88;1.67;;;20.20;99.90;;;;;;5035045;28;20032;-64
2023/09/02 11:28:06;;;;;;;5.07;2.40;;;20.30;99.90;;;;;;5035738;28;20052;-64
2023/09/02 11:30:37;;;;;;;3.58;1.70;;;20.10;99.90;;;;;;5035449;28;20132;-64
2023/09/02 11:33:03;;;;;;;3.75;1.55;;;20.10;99.90;;;;;;5018203;28;20041;-64
2023/09/02 11:35:32;;;;;;;4.10;1.73;;;20.10;99.90;;;;;;5034995;28;20040;-64
2023/09/02 11:37:58;;;;;;;4.97;1.60;;;20.20;99.90;;;;;;5035659;28;20097;-64
2023/09/02 11:40:26;;;;;;;3.85;1.60;;;20.00;99.90;;;;;;5034436;28;20123;-64
2023/09/02 11:42:55;;;;;;;6.45;2.05;;;19.90;99.90;;;;;;5019075;28;20508;-64
2023/09/02 11:45:22;;;;;;;4.38;1.63;;;20.20;99.90;;;;;;5035157;28;20052;-63
2023/09/02 11:47:49;;;;;;;7.53;2.20;;;20.20;99.90;;;;;;5034090;28;20053;-73
2023/09/02 11:50:18;;;;;;;4.28;1.65;;;20.30;99.90;;;;;;5052890;28;20438;-74
2023/09/02 11:52:44;;;;;;;5.15;1.88;;;20.30;99.90;;;;;;5034674;28;20045;-74
2023/09/02 11:55:14;;;;;;;4.28;1.77;;;20.30;99.90;;;;;;5052948;28;20037;-73
2023/09/02 11:57:40;;;;;;;5.80;2.38;;;20.20;99.90;;;;;;5035070;28;20048;-73
2023/09/02 12:00:07;;;;;;;4.07;1.50;;;20.30;99.90;;;;;;5034302;28;20048;-72
2023/09/02 12:02:37;;;;;;;3.63;1.40;;;20.10;99.90;;;;;;5034639;28;20065;-73
2023/09/02 12:05:03;;;;;;;4.50;1.70;;;20.20;99.90;;;;;;5018566;28;20044;-73
2023/09/02 12:07:32;;;;;;;4.50;1.60;;;20.00;99.90;;;;;;5051400;28;20041;-73
2023/09/02 12:10:08;;;;;;;5.45;1.65;;;20.20;99.90;;;;;;5034953;28;20045;-73
2023/09/02 12:12:35;;;;;;;5.03;2.10;;;20.00;99.90;;;;;;5034711;28;20047;-73
2023/09/02 12:15:03;;;;;;;4.53;1.52;;;20.10;99.90;;;;;;5033900;28;20101;-72
2023/09/02 12:17:29;;;;;;;4.10;1.60;;;20.00;99.90;;;;;;5034308;28;20084;-73
2023/09/02 12:19:55;;;;;;;3.88;1.58;;;20.10;99.90;;;;;;5018588;28;20063;-72
2023/09/02 12:22:21;;;;;;;3.00;1.20;;;20.30;99.90;;;;;;5051770;28;20119;-73
2023/09/02 12:24:47;;;;;;;2.90;1.25;;;20.00;99.90;;;;;;5034767;28;20420;-72
2023/09/02 12:27:17;;;;;;;4.05;1.50;;;20.10;99.90;;;;;;5052484;28;20140;-72
2023/09/02 12:29:54;;;;;;;5.13;1.50;;;20.30;99.90;;;;;;5033675;28;20045;-73
2023/09/02 12:32:20;;;;;;;4.47;1.48;;;20.20;99.90;;;;;;5034385;28;20041;-73
2023/09/02 12:34:45;;;;;;;5.53;1.70;;;20.20;99.90;;;;;;5034267;28;20047;-72
2023/09/02 12:37:20;;;;;;;3.10;1.63;;;20.40;99.90;;;;;;5033724;28;20037;-73
2023/09/02 12:39:46;;;;;;;3.13;1.13;;;20.40;99.90;;;;;;5034210;28;20051;-72